Time;durP1;ratioP1;P1;durP2;ratioP2;P2;SDS_P1;SDS_P2;PMS_P1;PMS_P2;Temp;Humidity;BMP_temperature;BMP_pressure;BME280_temperature;BME280_humidity;BME280_pressure;Samples;Min_cycle;Max_cycle;Signal;HPM_P1;HPM_P2
2022/07/02 00:00:47;;;;;;;24.40;8.52;;;12.40;99.90;;;;;;5054433;28;20537;-69
2022/07/02 00:03:15;;;;;;;26.30;8.40;;;12.40;99.90;;;;;;5054217;28;20032;-69
2022/07/02 00:06:02;;;;;;;22.58;7.30;;;12.50;99.90;;;;;;5054333;28;20420;-69
2022/07/02 00:08:28;;;;;;;15.05;7.07;;;12.50;99.90;;;;;;5053920;28;20029;-70
2022/07/02 00:10:55;;;;;;;21.10;8.35;;;12.50;99.90;;;;;;5054042;28;20465;-69
2022/07/02 00:13:22;;;;;;;20.98;8.00;;;12.50;99.90;;;;;;5054968;28;20038;-69
2022/07/02 00:15:48;;;;;;;20.10;8.52;;;12.50;99.90;;;;;;5054877;28;20025;-69
2022/07/02 00:18:15;;;;;;;16.10;7.15;;;12.50;99.90;;;;;;5054373;28;20029;-70
2022/07/02 00:20:42;;;;;;;21.90;8.55;;;12.50;99.90;;;;;;5054076;28;20024;-70
2022/07/02 00:23:08;;;;;;;20.48;7.05;;;12.60;99.90;;;;;;5054033;28;20029;-70
2022/07/02 00:25:58;;;;;;;15.57;7.75;;;12.50;99.90;;;;;;5052151;28;20025;-69
2022/07/02 00:28:25;;;;;;;22.50;8.68;;;12.50;99.90;;;;;;5021714;28;20490;-70
2022/07/02 00:30:52;;;;;;;14.35;6.53;;;12.50;99.90;;;;;;5033912;28;20543;-70
2022/07/02 00:33:18;;;;;;;15.50;7.13;;;12.50;99.90;;;;;;5034143;28;20030;-70
2022/07/02 00:35:44;;;;;;;15.18;7.88;;;12.40;99.90;;;;;;5034022;28;20022;-70
2022/07/02 00:38:10;;;;;;;19.73;8.07;;;12.30;99.90;;;;;;5041904;28;20543;-70
2022/07/02 00:40:37;;;;;;;20.63;7.85;;;12.40;99.90;;;;;;5054094;28;20033;-70
2022/07/02 00:43:03;;;;;;;13.52;6.78;;;12.40;99.90;;;;;;5053745;28;20025;-70
2022/07/02 00:45:30;;;;;;;14.98;7.00;;;12.20;99.90;;;;;;5053710;28;20025;-70
2022/07/02 00:47:57;;;;;;;15.45;7.05;;;12.10;99.90;;;;;;5054041;28;20074;-70
2022/07/02 00:50:23;;;;;;;23.42;7.93;;;12.00;99.90;;;;;;5053892;28;20362;-70
2022/07/02 00:52:49;;;;;;;11.63;6.30;;;12.00;99.90;;;;;;5053627;28;20017;-70
2022/07/02 00:55:15;;;;;;;11.85;6.43;;;11.90;99.90;;;;;;5053790;28;20477;-69
2022/07/02 00:57:45;;;;;;;9.95;6.07;;;11.90;99.90;;;;;;5053822;28;20032;-69
2022/07/02 01:00:13;;;;;;;24.00;7.88;;;11.80;99.90;;;;;;5053688;28;20017;-69
2022/07/02 01:02:43;;;;;;;17.50;6.13;;;11.80;99.90;;;;;;5053495;28;20504;-70
2022/07/02 01:05:09;;;;;;;16.42;6.72;;;11.80;99.90;;;;;;5054105;28;20381;-70
2022/07/02 01:07:36;;;;;;;10.48;5.93;;;11.70;99.90;;;;;;5053419;28;20096;-70
2022/07/02 01:10:17;;;;;;;18.63;7.60;;;11.70;99.90;;;;;;5053299;28;20452;-70
2022/07/02 01:12:49;;;;;;;13.23;7.28;;;11.60;99.90;;;;;;5053274;28;20101;-70
2022/07/02 01:15:15;;;;;;;12.32;6.07;;;11.60;99.90;;;;;;5033434;28;20036;-70
2022/07/02 01:17:42;;;;;;;17.33;7.90;;;11.60;99.90;;;;;;5033754;28;20389;-69
2022/07/02 01:20:09;;;;;;;22.60;7.32;;;11.60;99.90;;;;;;5033507;28;20032;-69
2022/07/02 01:22:38;;;;;;;11.18;6.28;;;11.50;99.90;;;;;;5035327;28;20029;-69
2022/07/02 01:25:05;;;;;;;18.20;6.30;;;11.50;99.90;;;;;;5049132;28;20070;-70
2022/07/02 01:27:31;;;;;;;14.43;6.75;;;11.40;99.90;;;;;;5057705;28;20029;-69
2022/07/02 01:29:56;;;;;;;29.27;9.32;;;11.40;99.90;;;;;;5057434;28;20028;-69
2022/07/02 01:32:22;;;;;;;27.73;9.75;;;11.50;99.90;;;;;;5057072;28;20484;-69
2022/07/02 01:35:11;;;;;;;16.80;8.18;;;11.70;99.90;;;;;;5056993;28;20017;-70
2022/07/02 01:37:38;;;;;;;15.07;7.10;;;11.70;99.90;;;;;;5057068;28;20426;-69
2022/07/02 01:40:05;;;;;;;17.80;6.93;;;11.70;99.90;;;;;;5057659;28;20013;-69
2022/07/02 01:42:30;;;;;;;19.50;7.60;;;11.60;99.90;;;;;;5056954;28;20139;-69
2022/07/02 01:44:56;;;;;;;12.27;6.78;;;11.50;99.90;;;;;;5056905;28;20509;-69
2022/07/02 01:47:22;;;;;;;13.32;6.70;;;11.40;99.90;;;;;;5056990;28;20032;-69
2022/07/02 01:49:47;;;;;;;14.52;7.07;;;11.40;99.90;;;;;;5056925;28;20032;-69
2022/07/02 01:52:14;;;;;;;15.40;9.25;;;11.40;99.90;;;;;;5056984;28;20039;-69
2022/07/02 01:54:40;;;;;;;16.17;7.63;;;11.60;99.90;;;;;;5056759;28;20459;-69
2022/07/02 01:57:06;;;;;;;20.27;9.00;;;11.60;99.90;;;;;;5056765;28;20078;-69
2022/07/02 01:59:33;;;;;;;14.90;7.50;;;11.40;99.90;;;;;;5056653;28;20044;-69
2022/07/02 02:01:58;;;;;;;18.10;9.40;;;11.40;99.90;;;;;;5056458;28;20025;-69
2022/07/02 02:04:24;;;;;;;18.15;7.40;;;11.50;99.90;;;;;;5056505;28;20031;-70
2022/07/02 02:06:50;;;;;;;16.88;8.35;;;11.50;99.90;;;;;;5056001;28;20105;-70
2022/07/02 02:09:16;;;;;;;14.48;7.25;;;11.50;99.90;;;;;;5056323;28;20482;-69
2022/07/02 02:11:42;;;;;;;15.52;7.50;;;11.40;99.90;;;;;;5056356;28;20021;-70
2022/07/02 02:14:08;;;;;;;14.57;7.63;;;11.30;99.90;;;;;;5056540;28;20096;-69
2022/07/02 02:16:34;;;;;;;14.75;7.85;;;11.30;99.90;;;;;;5056912;28;20048;-69
2022/07/02 02:19:01;;;;;;;11.63;7.35;;;11.20;99.90;;;;;;5056189;28;20473;-69
2022/07/02 02:21:27;;;;;;;14.50;7.82;;;11.30;99.90;;;;;;5056248;28;20520;-69
2022/07/02 02:23:54;;;;;;;18.08;8.40;;;11.30;99.90;;;;;;5056047;28;20068;-69
2022/07/02 02:26:20;;;;;;;18.83;8.63;;;11.20;99.90;;;;;;5056262;28;20083;-69
2022/07/02 02:28:46;;;;;;;18.00;8.35;;;11.30;99.90;;;;;;5056403;28;20389;-69
2022/07/02 02:31:11;;;;;;;22.33;8.48;;;11.20;99.90;;;;;;5056045;28;20036;-69
2022/07/02 02:33:37;;;;;;;14.15;8.00;;;11.20;99.90;;;;;;5053765;28;20021;-69
2022/07/02 02:36:03;;;;;;;16.80;8.38;;;11.10;99.90;;;;;;5056490;28;20439;-69
2022/07/02 02:38:29;;;;;;;17.77;8.25;;;11.10;99.90;;;;;;5056609;28;20017;-69
2022/07/02 02:40:54;;;;;;;16.58;8.90;;;11.10;99.90;;;;;;5056174;28;20048;-70
2022/07/02 02:43:20;;;;;;;19.25;9.00;;;11.00;99.90;;;;;;5055878;28;20036;-70
2022/07/02 02:45:45;;;;;;;15.75;6.78;;;11.00;99.90;;;;;;5055895;28;20481;-70
2022/07/02 02:48:11;;;;;;;12.70;7.28;;;11.00;99.90;;;;;;5055835;28;20493;-69
2022/07/02 02:50:37;;;;;;;11.57;6.82;;;10.90;99.90;;;;;;5055617;28;20492;-69
2022/07/02 02:53:02;;;;;;;12.20;6.18;;;10.90;99.90;;;;;;5055622;28;20385;-69
2022/07/02 02:55:29;;;;;;;11.43;7.25;;;10.80;99.90;;;;;;5055435;28;20032;-69
2022/07/02 02:57:54;;;;;;;19.58;8.40;;;10.80;99.90;;;;;;5055824;28;20025;-70
2022/07/02 03:00:20;;;;;;;18.55;8.70;;;10.80;99.90;;;;;;5055778;28;20032;-69
2022/07/02 03:02:46;;;;;;;10.50;7.20;;;10.70;99.90;;;;;;5055436;28;20371;-69
2022/07/02 03:05:12;;;;;;;17.02;8.38;;;10.70;99.90;;;;;;5055295;28;20397;-70
2022/07/02 03:07:38;;;;;;;12.95;6.57;;;10.70;99.90;;;;;;5055406;28;20111;-70
2022/07/02 03:10:04;;;;;;;11.00;6.97;;;10.60;99.90;;;;;;5055338;28;20035;-70
2022/07/02 03:12:30;;;;;;;15.05;7.32;;;10.60;99.90;;;;;;5055286;28;20390;-69
2022/07/02 03:14:55;;;;;;;12.50;6.10;;;10.60;99.90;;;;;;5055164;28;20040;-69
2022/07/02 03:17:21;;;;;;;14.50;6.88;;;10.70;99.90;;;;;;5055200;28;20035;-69
2022/07/02 03:19:46;;;;;;;10.38;6.95;;;10.80;99.90;;;;;;5055067;28;20027;-69
2022/07/02 03:22:12;;;;;;;12.15;6.90;;;10.70;99.90;;;;;;5055245;28;20086;-70
2022/07/02 03:24:38;;;;;;;10.02;6.70;;;10.80;99.90;;;;;;5055001;28;20053;-69
2022/07/02 03:27:04;;;;;;;17.48;6.55;;;10.80;99.90;;;;;;5054947;28;20108;-69
2022/07/02 03:29:29;;;;;;;8.43;5.38;;;10.80;99.90;;;;;;5055235;28;20060;-69
2022/07/02 03:31:55;;;;;;;11.40;6.88;;;10.80;99.90;;;;;;5055126;28;20059;-69
2022/07/02 03:34:20;;;;;;;18.92;7.78;;;10.70;99.90;;;;;;5054794;28;20492;-69
2022/07/02 03:36:46;;;;;;;22.60;8.85;;;10.90;99.90;;;;;;5055367;28;20029;-69
2022/07/02 03:39:12;;;;;;;21.27;8.82;;;11.10;99.90;;;;;;5054776;28;20017;-69
2022/07/02 03:41:37;;;;;;;16.52;8.32;;;11.20;99.90;;;;;;5054733;28;20040;-69
2022/07/02 03:44:03;;;;;;;16.23;7.20;;;11.30;99.90;;;;;;5054531;28;20362;-69
2022/07/02 03:46:29;;;;;;;18.42;8.10;;;11.40;99.90;;;;;;5054092;28;20087;-70
2022/07/02 03:48:54;;;;;;;12.63;6.18;;;11.40;99.90;;;;;;5054550;28;20075;-69
2022/07/02 03:51:21;;;;;;;12.48;6.55;;;11.40;99.90;;;;;;5054433;28;20075;-69
2022/07/02 03:53:48;;;;;;;19.80;8.07;;;11.40;99.90;;;;;;5054351;28;20025;-70
2022/07/02 03:56:14;;;;;;;24.65;8.80;;;11.50;99.90;;;;;;5054698;28;20083;-69
2022/07/02 03:58:39;;;;;;;11.65;6.38;;;11.50;99.90;;;;;;5054451;28;20025;-69
2022/07/02 04:01:07;;;;;;;16.20;5.93;;;11.60;99.90;;;;;;5054333;28;20107;-69
2022/07/02 04:03:36;;;;;;;22.13;7.47;;;11.60;99.90;;;;;;5050488;28;20746;-70
2022/07/02 04:06:02;;;;;;;21.20;8.27;;;11.60;99.90;;;;;;5040368;28;20024;-69
2022/07/02 04:08:28;;;;;;;25.85;10.35;;;11.70;99.90;;;;;;5034266;28;20504;-69
2022/07/02 04:10:53;;;;;;;30.13;10.05;;;11.80;99.90;;;;;;5034397;28;20037;-69
2022/07/02 04:13:19;;;;;;;29.15;10.55;;;11.90;99.90;;;;;;5034301;28;20041;-70
2022/07/02 04:15:45;;;;;;;29.08;10.93;;;12.10;99.90;;;;;;5044869;28;20129;-70
2022/07/02 04:18:10;;;;;;;34.78;12.13;;;12.50;99.90;;;;;;5054372;28;20381;-70
2022/07/02 04:20:36;;;;;;;32.22;12.88;;;12.50;99.90;;;;;;5054358;28;20138;-69
2022/07/02 04:23:01;;;;;;;32.17;11.63;;;12.60;99.90;;;;;;5054067;28;20028;-69
2022/07/02 04:25:28;;;;;;;22.80;12.40;;;12.70;99.90;;;;;;5054018;28;20416;-69
2022/07/02 04:27:54;;;;;;;30.55;11.63;;;12.90;99.90;;;;;;5054033;28;20021;-69
2022/07/02 04:30:19;;;;;;;32.67;11.75;;;13.00;99.90;;;;;;5053966;28;20040;-69
2022/07/02 04:32:45;;;;;;;29.65;11.32;;;13.20;99.90;;;;;;5053851;28;20066;-69
2022/07/02 04:35:11;;;;;;;24.35;12.32;;;13.20;99.90;;;;;;5035885;28;20056;-69
2022/07/02 04:37:36;;;;;;;20.52;10.63;;;13.20;99.90;;;;;;5053813;28;20017;-69
2022/07/02 04:40:03;;;;;;;25.75;11.15;;;13.30;99.90;;;;;;5035914;28;20059;-69
2022/07/02 04:42:29;;;;;;;24.90;10.48;;;13.30;99.90;;;;;;5053781;28;20104;-69
2022/07/02 04:44:55;;;;;;;23.23;11.18;;;13.30;99.90;;;;;;5053585;28;20017;-69
2022/07/02 04:47:21;;;;;;;26.83;10.63;;;13.50;99.90;;;;;;5053945;28;20078;-69
2022/07/02 04:49:46;;;;;;;33.95;11.45;;;13.50;99.90;;;;;;5053642;28;20021;-69
2022/07/02 04:52:12;;;;;;;22.70;10.25;;;13.60;99.90;;;;;;5053846;28;20454;-69
2022/07/02 04:54:38;;;;;;;29.15;11.18;;;13.70;99.90;;;;;;5053567;28;20086;-69
2022/07/02 04:57:03;;;;;;;25.27;10.45;;;13.80;99.90;;;;;;5052851;28;20033;-69
2022/07/02 04:59:29;;;;;;;25.40;11.73;;;13.80;99.90;;;;;;5054353;28;20025;-69
2022/07/02 05:01:55;;;;;;;17.55;10.32;;;13.90;99.90;;;;;;5054221;28;20053;-69
2022/07/02 05:04:20;;;;;;;22.77;9.63;;;13.90;99.90;;;;;;5054046;28;20033;-70
2022/07/02 05:06:46;;;;;;;18.08;10.68;;;14.10;99.90;;;;;;5053629;28;20460;-69
2022/07/02 05:09:12;;;;;;;24.77;9.73;;;14.10;99.90;;;;;;5035467;28;20029;-70
2022/07/02 05:11:37;;;;;;;24.02;10.32;;;14.20;99.90;;;;;;5053346;28;20025;-70
2022/07/02 05:14:03;;;;;;;32.40;10.07;;;14.20;99.90;;;;;;5053248;28;20381;-70
2022/07/02 05:16:28;;;;;;;18.05;8.20;;;14.40;99.90;;;;;;5053253;28;20027;-70
2022/07/02 05:18:54;;;;;;;22.77;8.77;;;14.50;99.90;;;;;;5053373;28;20025;-69
2022/07/02 05:21:20;;;;;;;26.00;7.97;;;14.50;99.90;;;;;;5053731;28;20458;-70
2022/07/02 05:23:45;;;;;;;17.60;7.95;;;14.70;99.90;;;;;;5053163;28;20033;-69
2022/07/02 05:26:11;;;;;;;31.92;7.68;;;14.70;99.90;;;;;;5053319;28;20155;-69
2022/07/02 05:28:37;;;;;;;24.65;8.02;;;14.90;99.90;;;;;;5053584;28;20059;-70
2022/07/02 05:31:02;;;;;;;21.00;8.73;;;15.00;99.90;;;;;;5053264;28;20496;-69
2022/07/02 05:33:28;;;;;;;21.25;7.43;;;15.00;99.90;;;;;;5053116;28;20363;-70
2022/07/02 05:35:53;;;;;;;21.58;5.45;;;15.20;99.90;;;;;;5053171;28;20025;-69
2022/07/02 05:38:19;;;;;;;20.52;5.40;;;15.20;99.90;;;;;;5053624;28;20100;-69
2022/07/02 05:40:44;;;;;;;16.15;5.45;;;15.40;99.90;;;;;;5053200;28;20417;-70
2022/07/02 05:43:10;;;;;;;14.68;5.05;;;15.50;99.90;;;;;;5053378;28;20025;-69
2022/07/02 05:45:36;;;;;;;17.58;4.70;;;15.70;99.90;;;;;;5053009;28;20033;-69
2022/07/02 05:48:01;;;;;;;17.10;4.72;;;15.80;99.90;;;;;;5053171;28;20032;-69
2022/07/02 05:50:27;;;;;;;14.15;4.03;;;16.00;99.90;;;;;;5053193;28;20366;-69
2022/07/02 05:52:53;;;;;;;13.73;4.22;;;16.10;99.90;;;;;;5053177;28;20025;-69
2022/07/02 05:55:18;;;;;;;17.17;3.65;;;16.30;99.90;;;;;;5052954;28;20036;-70
2022/07/02 05:57:44;;;;;;;9.05;3.53;;;16.50;99.90;;;;;;5053080;28;20029;-70
2022/07/02 06:00:10;;;;;;;14.90;3.40;;;16.60;99.90;;;;;;5053353;28;20025;-70
2022/07/02 06:02:37;;;;;;;9.48;2.95;;;16.80;99.90;;;;;;5053066;28;20025;-70
2022/07/02 06:07:47;;;;;;;8.45;2.97;;;17.20;99.90;;;;;;5053691;28;20083;-70
2022/07/02 06:10:19;;;;;;;15.88;3.45;;;17.40;99.90;;;;;;5056820;28;20024;-70
2022/07/02 06:12:50;;;;;;;10.82;2.53;;;17.60;99.90;;;;;;5038364;28;20021;-70
2022/07/02 06:15:16;;;;;;;8.40;2.03;;;17.90;99.90;;;;;;5056453;28;20021;-70
2022/07/02 06:17:42;;;;;;;11.27;2.60;;;18.40;99.90;;;;;;5056496;28;20064;-70
2022/07/02 06:20:09;;;;;;;13.80;2.53;;;18.50;99.90;;;;;;5056338;28;20080;-70
2022/07/02 06:22:35;;;;;;;16.17;2.95;;;18.60;99.90;;;;;;5056113;28;20134;-70
2022/07/02 06:25:00;;;;;;;10.10;2.20;;;18.70;99.90;;;;;;5056135;28;20068;-70
2022/07/02 06:27:26;;;;;;;13.40;3.20;;;18.80;99.90;;;;;;5056479;28;20493;-70
2022/07/02 06:29:52;;;;;;;11.43;2.42;;;18.80;99.90;;;;;;5056423;28;20025;-70
2022/07/02 06:32:17;;;;;;;13.77;2.35;;;18.60;99.90;;;;;;5056145;28;20056;-70
2022/07/02 06:34:44;;;;;;;15.50;2.42;;;18.60;99.90;;;;;;5055659;28;20013;-70
2022/07/02 06:37:09;;;;;;;13.20;2.15;;;18.80;99.90;;;;;;5036108;28;20504;-70
2022/07/02 06:39:36;;;;;;;25.90;3.08;;;18.90;99.90;;;;;;5036043;28;20029;-70
2022/07/02 06:42:20;;;;;;;9.80;2.50;;;19.00;99.90;;;;;;5036020;28;20025;-71
2022/07/02 06:44:51;;;;;;;15.77;2.20;;;18.90;99.90;;;;;;5035939;28;20033;-70
2022/07/02 06:47:17;;;;;;;19.25;2.58;;;18.70;99.90;;;;;;5035938;28;20072;-70
2022/07/02 06:49:43;;;;;;;13.18;2.10;;;18.50;99.90;;;;;;5035981;28;20363;-70
2022/07/02 06:52:10;;;;;;;10.80;2.20;;;18.30;99.90;;;;;;5035918;28;20029;-70
2022/07/02 06:54:36;;;;;;;9.30;2.13;;;18.20;99.90;;;;;;5036123;28;20497;-71
2022/07/02 06:57:03;;;;;;;9.95;2.60;;;17.90;99.90;;;;;;5035748;28;20029;-71
2022/07/02 06:59:28;;;;;;;20.83;2.80;;;17.80;99.90;;;;;;5035981;28;20028;-71
2022/07/02 07:01:54;;;;;;;15.38;2.35;;;17.60;99.90;;;;;;5035953;28;20026;-70
2022/07/02 07:04:20;;;;;;;10.80;1.70;;;17.50;99.90;;;;;;5042880;28;20086;-71
2022/07/02 07:06:54;;;;;;;14.48;2.90;;;17.40;99.90;;;;;;5055649;28;20504;-71
2022/07/02 07:09:20;;;;;;;14.98;3.20;;;17.40;99.90;;;;;;5037630;28;20047;-71
2022/07/02 07:11:46;;;;;;;28.42;3.88;;;17.70;99.90;;;;;;5055541;28;20528;-71
2022/07/02 07:14:12;;;;;;;9.40;2.10;;;17.90;99.90;;;;;;5055236;28;20021;-71
2022/07/02 07:16:39;;;;;;;16.83;2.42;;;18.20;99.90;;;;;;5055363;28;20397;-71
2022/07/02 07:19:04;;;;;;;10.23;2.05;;;18.40;99.90;;;;;;5054997;28;20013;-71
2022/07/02 07:21:34;;;;;;;8.27;1.95;;;18.70;99.90;;;;;;5054914;28;20075;-71
2022/07/02 07:24:00;;;;;;;7.57;1.92;;;18.90;99.90;;;;;;5056276;28;20033;-71
2022/07/02 07:26:26;;;;;;;21.88;2.20;;;19.10;99.90;;;;;;5055685;28;20025;-71
2022/07/02 07:28:52;;;;;;;9.43;2.05;;;19.10;99.90;;;;;;5055105;28;20090;-71
2022/07/02 07:31:20;;;;;;;17.92;2.63;;;19.20;99.90;;;;;;5055178;28;20500;-71
2022/07/02 07:33:50;;;;;;;9.95;2.28;;;19.30;99.90;;;;;;5054852;28;20055;-71
2022/07/02 07:36:18;;;;;;;9.55;2.00;;;19.40;99.90;;;;;;5055205;28;20043;-71
2022/07/02 07:38:44;;;;;;;5.18;1.70;;;19.50;99.90;;;;;;5055135;28;20033;-71
2022/07/02 07:41:10;;;;;;;8.45;1.40;;;19.60;99.90;;;;;;5055140;28;20032;-71
2022/07/02 07:43:35;;;;;;;7.82;1.23;;;19.70;99.90;;;;;;5054891;28;20092;-71
2022/07/02 07:46:01;;;;;;;12.38;1.92;;;19.70;99.90;;;;;;5054819;28;20450;-71
2022/07/02 07:48:27;;;;;;;13.65;1.70;;;19.80;99.90;;;;;;5054487;28;20393;-70
2022/07/02 07:50:52;;;;;;;4.80;1.35;;;19.60;99.90;;;;;;5054408;28;20496;-71
2022/07/02 07:53:18;;;;;;;6.38;1.80;;;19.50;99.90;;;;;;5054372;28;20032;-71
2022/07/02 07:55:45;;;;;;;16.55;2.17;;;19.60;99.90;;;;;;5054808;28;20443;-71
2022/07/02 07:58:11;;;;;;;15.05;2.67;;;19.80;99.90;;;;;;5054689;28;20025;-71
2022/07/02 08:00:37;;;;;;;23.38;2.47;;;19.90;99.90;;;;;;5054426;28;20025;-71
2022/07/02 08:03:02;;;;;;;10.80;2.00;;;20.10;99.90;;;;;;5054560;28;20033;-71
2022/07/02 08:05:28;;;;;;;12.05;1.70;;;20.20;99.90;;;;;;5051179;28;20082;-71
2022/07/02 08:07:53;;;;;;;9.30;1.42;;;20.00;99.90;;;;;;5054480;28;20044;-72
2022/07/02 08:10:19;;;;;;;13.77;2.53;;;19.80;99.90;;;;;;5054626;28;20032;-70
2022/07/02 08:12:46;;;;;;;25.42;3.05;;;19.80;99.90;;;;;;5054398;28;20103;-71
2022/07/02 08:15:12;;;;;;;10.25;1.95;;;19.70;99.90;;;;;;5054053;28;20032;-71
2022/07/02 08:17:38;;;;;;;14.70;2.60;;;19.70;99.90;;;;;;5054608;28;20035;-71
2022/07/02 08:20:05;;;;;;;12.20;2.50;;;20.00;99.90;;;;;;5054218;28;20017;-72
2022/07/02 08:22:32;;;;;;;7.28;1.67;;;20.00;99.90;;;;;;5054359;28;20033;-71
2022/07/02 08:24:58;;;;;;;9.30;1.55;;;20.10;99.90;;;;;;5054395;28;20116;-71
2022/07/02 08:27:23;;;;;;;13.07;1.55;;;20.10;99.90;;;;;;5054106;28;20096;-71
2022/07/02 08:29:49;;;;;;;10.70;1.83;;;20.20;99.90;;;;;;5053977;28;20025;-71
2022/07/02 08:32:15;;;;;;;10.60;1.98;;;20.40;99.90;;;;;;5053017;28;20021;-70
2022/07/02 08:34:40;;;;;;;6.70;1.40;;;20.40;99.90;;;;;;5053982;28;20017;-70
2022/07/02 08:37:06;;;;;;;4.90;1.40;;;20.20;99.90;;;;;;5054274;28;20024;-70
2022/07/02 08:39:32;;;;;;;7.32;1.65;;;20.00;99.90;;;;;;5054016;28;20025;-70
2022/07/02 08:41:59;;;;;;;9.95;1.45;;;19.80;99.90;;;;;;5054202;28;20048;-70
2022/07/02 08:44:25;;;;;;;9.02;2.28;;;19.70;99.90;;;;;;5054372;28;20476;-70
2022/07/02 08:46:52;;;;;;;8.27;1.80;;;19.70;99.90;;;;;;5053980;28;20449;-70
2022/07/02 08:49:18;;;;;;;11.30;1.67;;;20.00;99.90;;;;;;5053917;28;20033;-70
2022/07/02 08:51:55;;;;;;;11.70;2.38;;;20.30;99.90;;;;;;5053779;28;20492;-70
2022/07/02 08:54:22;;;;;;;6.13;2.13;;;20.60;99.90;;;;;;5053702;28;20035;-70
2022/07/02 08:56:50;;;;;;;8.18;1.85;;;20.70;99.90;;;;;;5053689;28;20020;-70
2022/07/02 08:59:16;;;;;;;10.77;1.40;;;20.80;99.90;;;;;;5053983;28;20029;-70
2022/07/02 09:01:42;;;;;;;7.28;1.40;;;20.80;99.90;;;;;;5053529;28;20075;-70
2022/07/02 09:04:08;;;;;;;15.18;1.88;;;20.70;99.90;;;;;;5053527;28;20064;-70
2022/07/02 09:06:37;;;;;;;20.45;1.70;;;20.60;99.90;;;;;;5053640;28;20029;-70
2022/07/02 09:09:02;;;;;;;10.52;1.60;;;20.80;99.90;;;;;;5053543;28;20469;-70
2022/07/02 09:11:30;;;;;;;10.60;1.92;;;20.80;99.90;;;;;;5053505;28;20029;-70
2022/07/02 09:13:56;;;;;;;11.57;1.80;;;20.90;99.90;;;;;;5053598;28;20021;-70
2022/07/02 09:16:22;;;;;;;6.68;1.70;;;20.80;99.90;;;;;;5053461;28;20036;-70
2022/07/02 09:18:48;;;;;;;11.85;2.13;;;21.20;99.90;;;;;;5053561;28;20022;-70
2022/07/02 09:21:13;;;;;;;6.90;1.23;;;20.80;99.90;;;;;;5053728;28;20094;-70
2022/07/02 09:23:46;;;;;;;5.05;1.67;;;20.70;99.90;;;;;;5053532;28;20020;-71
2022/07/02 09:26:23;;;;;;;8.25;2.15;;;20.90;99.90;;;;;;5053415;28;20032;-71
2022/07/02 09:28:56;;;;;;;7.43;1.67;;;20.90;99.90;;;;;;5053869;28;20029;-71
2022/07/02 09:31:21;;;;;;;8.82;1.70;;;20.80;99.90;;;;;;5053662;28;20032;-71
2022/07/02 09:33:47;;;;;;;6.65;1.73;;;21.00;99.90;;;;;;5053884;28;20457;-71
2022/07/02 09:36:13;;;;;;;9.95;2.10;;;21.00;99.90;;;;;;5053694;28;20029;-71
2022/07/02 09:38:43;;;;;;;10.10;2.03;;;21.20;99.90;;;;;;5053298;28;20013;-70
2022/07/02 09:41:15;;;;;;;19.10;2.33;;;20.90;99.90;;;;;;5053505;28;20021;-71
2022/07/02 09:43:41;;;;;;;7.93;2.03;;;20.80;99.90;;;;;;5055704;28;20025;-70
2022/07/02 09:46:18;;;;;;;8.98;2.08;;;21.00;99.90;;;;;;5058215;28;20024;-71
2022/07/02 09:48:45;;;;;;;9.30;2.03;;;21.20;99.90;;;;;;5058045;28;20060;-70
2022/07/02 09:51:11;;;;;;;10.93;1.73;;;21.10;99.90;;;;;;5057410;28;20025;-71
2022/07/02 09:54:06;;;;;;;11.60;2.35;;;21.10;99.90;;;;;;5037298;28;20397;-71
2022/07/02 09:56:31;;;;;;;15.57;2.10;;;20.90;99.90;;;;;;5037190;28;20401;-71
2022/07/02 09:58:57;;;;;;;16.17;1.80;;;20.60;99.90;;;;;;5037080;28;20025;-71
2022/07/02 10:01:23;;;;;;;9.45;2.35;;;20.40;99.90;;;;;;5037067;28;20484;-71
2022/07/02 10:03:52;;;;;;;11.20;2.55;;;20.50;99.90;;;;;;5036919;28;20300;-71
2022/07/02 10:06:19;;;;;;;7.63;1.80;;;20.90;99.90;;;;;;5037197;28;20486;-71
2022/07/02 10:08:45;;;;;;;6.30;2.15;;;20.90;99.90;;;;;;5036984;28;20091;-71
2022/07/02 10:11:13;;;;;;;11.70;2.33;;;21.00;99.90;;;;;;5036813;28;20029;-71
2022/07/02 10:13:40;;;;;;;8.27;1.77;;;20.80;99.90;;;;;;5036746;28;20025;-71
2022/07/02 10:16:14;;;;;;;7.25;2.33;;;20.60;99.90;;;;;;5036992;28;20425;-71
2022/07/02 10:18:43;;;;;;;7.35;1.73;;;20.60;99.90;;;;;;5037054;28;20064;-71
2022/07/02 10:21:14;;;;;;;12.38;2.03;;;21.20;99.90;;;;;;5052500;28;20107;-71
2022/07/02 10:23:42;;;;;;;5.90;1.42;;;22.00;99.90;;;;;;5056719;28;20534;-71
2022/07/02 10:26:08;;;;;;;6.30;1.70;;;22.50;99.90;;;;;;5056473;28;20032;-71
2022/07/02 10:28:34;;;;;;;7.00;1.30;;;22.80;99.90;;;;;;5056415;28;20036;-71
2022/07/02 10:31:00;;;;;;;4.53;1.38;;;22.40;99.90;;;;;;5056777;28;20021;-71
2022/07/02 10:33:28;;;;;;;13.68;1.35;;;22.00;99.90;;;;;;5056214;28;20075;-70
2022/07/02 10:35:57;;;;;;;11.68;2.33;;;21.80;99.90;;;;;;5054874;28;20036;-70
2022/07/02 10:38:34;;;;;;;12.60;1.52;;;21.80;99.90;;;;;;5037487;28;20014;-71
2022/07/02 10:41:00;;;;;;;4.35;1.50;;;21.40;99.90;;;;;;5036427;28;20105;-70
2022/07/02 10:43:28;;;;;;;5.78;1.98;;;20.90;99.90;;;;;;5050550;28;20017;-70
2022/07/02 10:46:09;;;;;;;3.42;1.02;;;20.90;99.90;;;;;;5056079;28;20014;-71
2022/07/02 10:48:56;;;;;;;7.78;1.45;;;20.90;99.90;;;;;;5056121;28;20025;-71
2022/07/02 10:51:27;;;;;;;7.90;2.20;;;21.30;99.90;;;;;;5055772;28;20035;-71
2022/07/02 10:53:57;;;;;;;10.13;2.08;;;21.30;99.90;;;;;;5055509;28;20056;-71
2022/07/02 10:56:23;;;;;;;7.85;2.17;;;21.30;99.90;;;;;;5055306;28;20434;-70
2022/07/02 10:58:49;;;;;;;12.75;2.78;;;21.30;99.90;;;;;;5056465;28;20020;-71
2022/07/02 11:01:21;;;;;;;14.63;2.05;;;21.10;99.90;;;;;;5056190;28;20025;-70
2022/07/02 11:04:21;;;;;;;12.60;2.03;;;21.50;99.90;;;;;;5055821;28;20056;-71
2022/07/02 11:06:47;;;;;;;9.02;1.60;;;21.90;99.90;;;;;;5041797;28;20091;-71
2022/07/02 11:09:13;;;;;;;7.20;2.60;;;22.30;99.90;;;;;;5055709;28;20094;-71
2022/07/02 11:11:39;;;;;;;9.20;1.95;;;22.10;99.90;;;;;;5055370;28;20485;-70
2022/07/02 11:14:09;;;;;;;13.02;1.38;;;21.60;99.90;;;;;;5037576;28;20044;-70
2022/07/02 11:16:45;;;;;;;5.25;1.33;;;21.60;99.90;;;;;;5055517;28;20044;-71
2022/07/02 11:19:18;;;;;;;4.55;1.17;;;21.50;99.90;;;;;;5055785;28;20021;-71
2022/07/02 11:21:46;;;;;;;8.88;1.80;;;21.80;99.90;;;;;;5055433;28;20098;-71
2022/07/02 11:24:15;;;;;;;4.05;1.15;;;22.00;99.90;;;;;;5055534;28;20039;-71
2022/07/02 11:26:42;;;;;;;6.35;1.40;;;22.20;99.90;;;;;;5055163;28;20377;-71
2022/07/02 11:29:08;;;;;;;10.38;1.50;;;22.40;99.90;;;;;;5055331;28;20100;-72
2022/07/02 11:31:40;;;;;;;6.45;1.40;;;22.00;99.90;;;;;;5054979;28;20116;-71
2022/07/02 11:34:06;;;;;;;9.68;1.60;;;21.80;99.90;;;;;;5055159;28;20028;-71
2022/07/02 11:36:32;;;;;;;6.18;1.52;;;22.00;99.90;;;;;;5055005;28;20059;-72
2022/07/02 11:38:57;;;;;;;4.43;1.45;;;22.40;99.90;;;;;;5037116;28;20029;-71
2022/07/02 11:41:29;;;;;;;7.88;1.77;;;22.40;99.90;;;;;;5055012;28;20086;-72
2022/07/02 11:43:57;;;;;;;5.57;1.45;;;22.10;99.90;;;;;;5036859;28;20024;-73
2022/07/02 11:46:25;;;;;;;6.70;1.58;;;22.00;99.90;;;;;;5055017;28;20033;-70
2022/07/02 11:48:52;;;;;;;9.75;1.40;;;21.90;99.90;;;;;;5054947;28;20481;-72
2022/07/02 11:51:21;;;;;;;7.78;1.40;;;22.00;99.90;;;;;;5054779;28;20029;-70
2022/07/02 11:54:03;;;;;;;9.85;1.15;;;22.10;99.90;;;;;;5054640;28;20029;-71
2022/07/02 11:56:31;;;;;;;3.78;1.20;;;22.40;99.90;;;;;;5054793;28;20028;-70
2022/07/02 11:58:56;;;;;;;8.82;2.53;;;22.60;99.90;;;;;;5055043;28;20013;-70
2022/07/02 12:01:26;;;;;;;5.93;1.05;;;22.80;99.90;;;;;;5054731;28;20029;-70
2022/07/02 12:03:54;;;;;;;6.78;1.17;;;23.00;99.90;;;;;;5054599;28;20032;-70
2022/07/02 12:06:20;;;;;;;4.18;1.13;;;23.10;99.90;;;;;;5054655;28;20036;-70
2022/07/02 12:08:49;;;;;;;7.43;1.10;;;22.70;99.90;;;;;;5055754;28;20028;-71
2022/07/02 12:11:16;;;;;;;8.48;1.23;;;22.80;99.90;;;;;;5055200;28;20025;-72
2022/07/02 12:13:43;;;;;;;14.65;1.77;;;22.80;99.90;;;;;;5054269;28;20025;-72
2022/07/02 12:16:11;;;;;;;4.40;1.08;;;22.80;99.90;;;;;;5054535;28;20461;-73
2022/07/02 12:18:37;;;;;;;8.25;1.63;;;23.40;99.90;;;;;;5054240;28;20427;-71
2022/07/02 12:21:14;;;;;;;3.10;0.73;;;23.80;99.90;;;;;;5054304;28;20021;-71
2022/07/02 12:23:48;;;;;;;3.92;1.25;;;23.10;99.90;;;;;;5055390;28;20017;-74
2022/07/02 12:26:25;;;;;;;;;;;23.10;99.90;;;;;;5055978;28;20406;-74
2022/07/02 12:31:52;;;;;;;5.38;0.73;;;23.70;99.90;;;;;;5055076;28;20110;-74
2022/07/02 12:34:20;;;;;;;1.83;0.57;;;23.70;99.90;;;;;;5040518;28;20084;-75
2022/07/02 12:36:56;;;;;;;6.22;0.68;;;24.00;99.90;;;;;;5037725;28;20021;-75
2022/07/02 12:39:24;;;;;;;5.05;0.52;;;24.00;99.90;;;;;;5054322;28;20043;-75
2022/07/02 12:41:49;;;;;;;7.00;0.93;;;24.10;99.90;;;;;;5055004;28;20031;-75
2022/07/02 12:44:21;;;;;;;2.83;0.80;;;24.50;99.90;;;;;;5054913;28;20029;-75